createdAt,value
2019-04-01T05:20:51.765Z,21.23
2019-04-01T05:23:22.184Z,29.12
2019-04-01T05:33:21.980Z,21.60
2019-04-01T05:35:56.171Z,20.43
2019-04-01T05:38:27.205Z,20.75
2019-04-01T05:48:28.506Z,17.50
2019-04-01T05:50:58.987Z,17.87
2019-04-01T05:53:29.771Z,18.00
2019-04-01T05:55:59.791Z,16.32
2019-04-01T05:58:30.212Z,19.12
2019-04-01T06:06:01.796Z,23.47
2019-04-01T06:08:34.197Z,25.85
2019-04-01T06:11:04.281Z,25.15
2019-04-01T06:13:34.518Z,21.55
2019-04-01T06:16:04.939Z,21.95
2019-04-01T06:18:35.486Z,21.80
2019-04-01T06:21:05.690Z,21.97
2019-04-01T06:23:36.121Z,23.15
2019-04-01T06:26:06.654Z,23.62
2019-04-01T17:12:35.008Z,10.65
2019-04-01T17:15:06.053Z,11.18
2019-04-01T17:17:37.758Z,10.08
2019-04-01T17:20:08.735Z,10.80
2019-04-01T17:22:40.299Z,10.00
2019-04-01T17:25:11.341Z,9.30
2019-04-01T17:27:42.944Z,9.50
2019-04-01T17:30:14.562Z,9.50
2019-04-01T17:32:45.897Z,9.23
2019-04-01T17:35:17.343Z,10.50
2019-04-01T17:37:49.107Z,10.40
2019-04-01T17:40:20.387Z,9.38
2019-04-01T17:42:51.761Z,9.00
2019-04-01T17:45:29.101Z,9.07
2019-04-01T17:48:04.635Z,8.70
2019-04-01T17:50:36.808Z,8.85
2019-04-01T17:53:09.183Z,12.73
2019-04-01T17:55:40.323Z,14.43
2019-04-01T17:58:11.896Z,11.43
2019-04-01T18:00:45.112Z,10.65
2019-04-01T18:03:16.814Z,9.25
2019-04-01T18:05:48.170Z,9.60
2019-04-01T18:08:19.627Z,9.58
2019-04-01T18:10:52.206Z,9.35
2019-04-01T18:13:23.653Z,8.93
2019-04-01T18:15:57.300Z,9.18
2019-04-01T18:18:27.797Z,9.65
2019-04-01T18:20:59.447Z,10.80
2019-04-01T18:23:30.585Z,12.58
2019-04-01T18:26:02.028Z,12.50
2019-04-01T18:28:33.608Z,11.85
2019-04-01T18:31:05.259Z,10.32
2019-04-01T18:33:36.801Z,11.22
2019-04-01T18:36:08.352Z,10.23
2019-04-01T18:38:40.964Z,10.23
2019-04-01T18:41:12.896Z,10.38
2019-04-01T18:43:44.085Z,10.70
2019-04-01T18:46:16.735Z,9.80
2019-04-01T18:48:48.229Z,9.73
2019-04-01T18:51:20.464Z,10.43
2019-04-01T18:53:51.885Z,9.83
2019-04-01T18:56:23.253Z,9.83
2019-04-01T18:58:54.791Z,9.68
2019-04-01T19:01:26.026Z,9.50
2019-04-01T19:03:56.962Z,8.90
2019-04-01T19:06:28.436Z,9.40
2019-04-01T19:09:09.198Z,9.90
2019-04-01T19:11:34.604Z,8.78
2019-04-01T19:14:06.433Z,8.70
2019-04-01T19:16:37.718Z,9.25
2019-04-01T19:19:11.062Z,8.45
2019-04-01T19:21:42.254Z,9.03
2019-04-01T19:24:15.443Z,9.30
2019-04-01T19:26:46.589Z,8.93
2019-04-01T19:29:17.829Z,8.43
2019-04-01T19:31:51.248Z,8.35
2019-04-01T19:34:22.482Z,8.08
2019-04-01T19:36:53.825Z,7.90
2019-04-01T19:39:24.970Z,7.83
2019-04-01T19:41:55.953Z,7.42
2019-04-01T19:44:27.346Z,6.85
2019-04-01T19:46:58.392Z,7.35
2019-04-01T19:49:29.844Z,7.60
2019-04-01T19:52:01.149Z,7.12
2019-04-01T19:54:33.997Z,7.60
2019-04-01T19:57:07.086Z,7.30
2019-04-01T19:59:38.430Z,7.30
2019-04-01T20:02:09.910Z,8.05
2019-04-01T20:04:41.136Z,7.50
2019-04-01T20:07:12.887Z,7.50
2019-04-01T20:09:46.315Z,8.30
2019-04-01T20:12:18.842Z,7.80
2019-04-01T20:14:50.233Z,8.43
2019-04-01T20:17:21.760Z,8.23
2019-04-01T20:19:52.894Z,8.95
2019-04-01T20:22:24.059Z,8.23
2019-04-01T20:24:55.583Z,9.10
2019-04-01T20:27:27.036Z,8.77
2019-04-01T20:29:58.571Z,8.57
2019-04-01T20:32:29.936Z,8.70
2019-04-01T20:35:01.398Z,8.85
2019-04-01T20:37:32.808Z,8.18
2019-04-01T20:40:05.528Z,8.97
2019-04-01T20:42:36.498Z,9.70
2019-04-01T20:45:10.860Z,8.75
2019-04-01T20:47:41.620Z,8.38
2019-04-01T20:50:14.302Z,8.80
2019-04-01T20:52:45.435Z,9.50
2019-04-01T20:55:17.842Z,9.28
2019-04-01T20:57:49.126Z,9.90
2019-04-01T21:00:21.027Z,9.75
2019-04-01T21:02:52.161Z,9.93
2019-04-01T21:05:24.209Z,9.77
2019-04-01T21:07:55.894Z,9.23
2019-04-01T21:10:27.455Z,9.45
2019-04-01T21:12:58.593Z,9.40
2019-04-01T21:15:30.248Z,9.43
2019-04-01T21:18:01.997Z,9.65
2019-04-01T21:20:33.377Z,9.80
2019-04-01T21:23:05.009Z,10.10
2019-04-01T21:25:36.153Z,9.43
2019-04-01T21:28:08.436Z,10.58
2019-04-01T21:30:39.668Z,9.95
2019-04-01T21:33:10.813Z,10.30
2019-04-01T21:35:42.151Z,9.90
2019-04-01T21:38:13.409Z,10.18
2019-04-01T21:40:44.828Z,10.35
2019-04-01T21:43:16.513Z,10.32
2019-04-01T21:45:47.768Z,11.03
2019-04-01T21:48:19.414Z,10.80
2019-04-01T21:50:50.565Z,10.48
2019-04-01T21:53:21.517Z,11.15
2019-04-01T21:55:54.109Z,11.45
2019-04-01T21:58:25.621Z,10.85
2019-04-01T22:00:58.071Z,10.98
2019-04-01T22:03:31.190Z,10.08
2019-04-01T22:06:02.335Z,10.20
2019-04-01T22:08:33.888Z,10.85
2019-04-01T22:11:04.931Z,10.43
2019-04-01T22:13:36.380Z,10.65
2019-04-01T22:16:07.565Z,10.58
2019-04-01T22:18:39.081Z,10.35
2019-04-01T22:21:11.166Z,9.95
2019-04-01T22:23:42.998Z,10.18
2019-04-01T22:26:14.354Z,10.03
2019-04-01T22:28:46.111Z,10.00
2019-04-01T22:31:17.364Z,10.15
2019-04-01T22:33:48.900Z,9.55
2019-04-01T22:36:30.409Z,9.50
2019-04-01T22:38:53.028Z,9.73
2019-04-01T22:41:24.697Z,8.95
2019-04-01T22:43:56.250Z,8.40
2019-04-01T22:46:27.598Z,9.00
2019-04-01T22:48:59.152Z,8.93
2019-04-01T22:51:30.504Z,8.73
2019-04-01T22:54:02.256Z,8.20
2019-04-01T22:56:34.110Z,8.53
2019-04-01T22:59:05.461Z,9.08
2019-04-01T23:01:37.014Z,8.93
2019-04-01T23:04:09.049Z,8.88
2019-04-01T23:06:40.640Z,8.10
2019-04-01T23:09:11.992Z,8.80
2019-04-01T23:11:43.028Z,9.20
2019-04-01T23:14:14.168Z,8.95
2019-04-01T23:16:45.510Z,8.63
2019-04-01T23:19:16.837Z,8.25
2019-04-01T23:21:48.330Z,7.90
2019-04-01T23:24:19.485Z,7.53
2019-04-01T23:26:50.911Z,7.37
2019-04-01T23:29:22.631Z,8.10
2019-04-01T23:31:54.344Z,7.45
2019-04-01T23:34:25.535Z,7.17
2019-04-01T23:36:57.129Z,7.22
2019-04-01T23:39:28.679Z,7.03
2019-04-01T23:41:59.974Z,7.25
2019-04-01T23:44:31.587Z,6.50
2019-04-01T23:47:02.725Z,6.20
2019-04-01T23:49:34.282Z,7.40
2019-04-01T23:52:05.461Z,6.92
2019-04-01T23:54:37.178Z,6.67
2019-04-01T23:57:08.470Z,5.92
2019-04-01T23:59:39.783Z,6.53
